Time;durP1;ratioP1;P1;durP2;ratioP2;P2;SDS_P1;SDS_P2;PMS_P1;PMS_P2;Temp;Humidity;BMP_temperature;BMP_pressure;BME280_temperature;BME280_humidity;BME280_pressure;Samples;Min_cycle;Max_cycle;Signal;HPM_P1;HPM_P2
2022/07/02 00:01:49;;;;;;;35.17;9.32;;;;;;;;;;5033610;28;20066;-66
2022/07/02 00:04:58;;;;;;;28.98;7.78;;;;;;;;;;5033329;28;20640;-66
2022/07/02 00:08:03;;;;;;;22.20;7.75;;;;;;;;;;5033261;28;20040;-68
2022/07/02 00:11:09;;;;;;;21.40;7.55;;;;;;;;;;5033055;28;20052;-66
2022/07/02 00:14:14;;;;;;;27.02;8.45;;;;;;;;;;5033318;28;20038;-66
2022/07/02 00:17:19;;;;;;;32.15;8.55;;;;;;;;;;5032920;28;20419;-67
2022/07/02 00:20:24;;;;;;;31.58;8.48;;;;;;;;;;5033352;28;20041;-66
2022/07/02 00:23:28;;;;;;;26.67;8.23;;;;;;;;;;5033099;28;20033;-66
2022/07/02 00:26:33;;;;;;;31.45;7.85;;;;;;;;;;5033008;28;20044;-66
2022/07/02 00:29:42;;;;;;;19.60;7.78;;;;;;;;;;5032905;28;20212;-67
2022/07/02 00:32:47;;;;;;;23.38;8.10;;;;;;;;;;5020797;28;20048;-66
2022/07/02 00:35:54;;;;;;;28.75;8.35;;;;;;;;;;5033245;28;20044;-65
2022/07/02 00:38:58;;;;;;;23.17;7.20;;;;;;;;;;5033076;28;20043;-65
2022/07/02 00:42:03;;;;;;;26.48;8.35;;;;;;;;;;5032823;28;20505;-66
2022/07/02 00:45:08;;;;;;;20.27;7.30;;;;;;;;;;5032510;28;20029;-65
2022/07/02 00:48:13;;;;;;;30.80;7.80;;;;;;;;;;5032466;28;20049;-65
2022/07/02 00:51:18;;;;;;;31.38;7.88;;;;;;;;;;5032320;28;20053;-65
2022/07/02 00:54:22;;;;;;;23.35;7.72;;;;;;;;;;5032500;28;20034;-65
2022/07/02 00:57:26;;;;;;;19.80;8.10;;;;;;;;;;5032496;28;20401;-66
2022/07/02 01:00:31;;;;;;;25.17;7.70;;;;;;;;;;5032153;28;20038;-65
2022/07/02 01:03:36;;;;;;;26.80;8.35;;;;;;;;;;5031896;28;20038;-65
2022/07/02 01:06:41;;;;;;;21.90;7.85;;;;;;;;;;5032352;28;20117;-66
2022/07/02 01:13:10;;;;;;;22.67;7.70;;;;;;;;;;5032303;28;20045;-65
2022/07/02 01:16:15;;;;;;;23.83;7.30;;;;;;;;;;5019610;28;20046;-65
2022/07/02 01:19:20;;;;;;;21.75;7.60;;;;;;;;;;5031914;28;20511;-65
2022/07/02 01:22:25;;;;;;;22.90;7.78;;;;;;;;;;5032176;28;20037;-65
2022/07/02 01:25:29;;;;;;;22.92;7.57;;;;;;;;;;5031893;28;20033;-65
2022/07/02 01:28:33;;;;;;;29.30;8.27;;;;;;;;;;5031691;28;20048;-65
2022/07/02 01:31:37;;;;;;;20.17;7.63;;;;;;;;;;5031526;28;20050;-65
2022/07/02 01:34:43;;;;;;;28.40;7.95;;;;;;;;;;5031666;28;20044;-65
2022/07/02 01:37:49;;;;;;;22.90;7.78;;;;;;;;;;5019379;28;20165;-65
2022/07/02 01:41:38;;;;;;;18.20;8.00;;;;;;;;;;5031509;28;20029;-65
2022/07/02 01:44:18;;;;;;;21.77;7.60;;;;;;;;;;5023036;28;20041;-65
2022/07/02 01:47:22;;;;;;;23.48;8.18;;;;;;;;;;5031359;28;20038;-65
2022/07/02 01:50:26;;;;;;;23.65;8.60;;;;;;;;;;5031375;28;20053;-65
2022/07/02 01:53:30;;;;;;;32.15;8.65;;;;;;;;;;5031383;28;20381;-65
2022/07/02 01:56:35;;;;;;;28.27;8.68;;;;;;;;;;5031112;28;20492;-65
2022/07/02 01:59:39;;;;;;;22.88;9.07;;;;;;;;;;5031442;28;20046;-65
2022/07/02 02:02:43;;;;;;;26.40;8.57;;;;;;;;;;5031476;28;20531;-65
2022/07/02 02:05:52;;;;;;;34.08;8.55;;;;;;;;;;5031009;28;20057;-65
2022/07/02 02:08:57;;;;;;;24.83;9.95;;;;;;;;;;5031291;28;20045;-65
2022/07/02 02:12:02;;;;;;;30.80;9.00;;;;;;;;;;5031182;28;20052;-65
2022/07/02 02:15:06;;;;;;;23.60;8.82;;;;;;;;;;5030815;28;20041;-65
2022/07/02 02:18:10;;;;;;;23.80;8.18;;;;;;;;;;5030815;28;20041;-65
2022/07/02 02:21:15;;;;;;;28.45;8.57;;;;;;;;;;5031219;28;20393;-65
2022/07/02 02:24:20;;;;;;;19.23;8.00;;;;;;;;;;5030799;28;20543;-65
2022/07/02 02:27:24;;;;;;;23.77;8.65;;;;;;;;;;5031129;28;20055;-65
2022/07/02 02:30:29;;;;;;;24.58;8.77;;;;;;;;;;5030739;28;20041;-65
2022/07/02 02:33:33;;;;;;;21.30;8.65;;;;;;;;;;5031041;28;20078;-65
2022/07/02 02:36:38;;;;;;;26.17;9.35;;;;;;;;;;5031051;28;20042;-65
2022/07/02 02:39:42;;;;;;;31.33;9.38;;;;;;;;;;5030632;28;20040;-65
2022/07/02 02:42:47;;;;;;;23.63;8.93;;;;;;;;;;5030957;28;20037;-65
2022/07/02 02:45:51;;;;;;;30.17;9.18;;;;;;;;;;5033575;28;20504;-65
2022/07/02 02:48:55;;;;;;;25.85;8.07;;;;;;;;;;5034935;28;20048;-65
2022/07/02 02:51:59;;;;;;;24.75;8.20;;;;;;;;;;5034574;28;20062;-65
2022/07/02 02:55:04;;;;;;;23.98;8.25;;;;;;;;;;5034551;28;20061;-65
2022/07/02 02:58:11;;;;;;;23.88;8.77;;;;;;;;;;5034474;28;20037;-65
2022/07/02 03:01:16;;;;;;;18.63;9.05;;;;;;;;;;5034568;28;20040;-65
2022/07/02 03:04:20;;;;;;;22.52;8.25;;;;;;;;;;5034810;28;20056;-66
2022/07/02 03:07:24;;;;;;;19.45;8.80;;;;;;;;;;5034681;28;20044;-65
2022/07/02 03:10:29;;;;;;;24.58;9.05;;;;;;;;;;5034124;28;20053;-65
2022/07/02 03:13:34;;;;;;;22.98;9.00;;;;;;;;;;5034452;28;20033;-65
2022/07/02 03:16:38;;;;;;;20.67;9.52;;;;;;;;;;5034506;28;20045;-65
2022/07/02 03:19:43;;;;;;;19.25;8.50;;;;;;;;;;5034128;28;20037;-65
2022/07/02 03:22:48;;;;;;;23.60;8.05;;;;;;;;;;5034501;28;20044;-65
2022/07/02 03:25:52;;;;;;;20.70;8.23;;;;;;;;;;5034431;28;20037;-67
2022/07/02 03:28:56;;;;;;;27.35;8.18;;;;;;;;;;5033895;28;20041;-67
2022/07/02 03:32:01;;;;;;;21.70;8.32;;;;;;;;;;5033764;28;20064;-67
2022/07/02 03:35:05;;;;;;;23.85;9.05;;;;;;;;;;5034159;28;20049;-65
2022/07/02 03:38:10;;;;;;;29.38;9.32;;;;;;;;;;5033781;28;20057;-67
2022/07/02 03:41:14;;;;;;;29.08;8.48;;;;;;;;;;5033851;28;20038;-65
2022/07/02 03:44:18;;;;;;;39.08;10.18;;;;;;;;;;5033634;28;20038;-67
2022/07/02 03:47:22;;;;;;;27.23;9.60;;;;;;;;;;5033751;28;20045;-67
2022/07/02 03:50:27;;;;;;;40.08;9.55;;;;;;;;;;5021288;28;20036;-67
2022/07/02 03:53:31;;;;;;;30.48;8.55;;;;;;;;;;5033584;28;20065;-67
2022/07/02 03:56:35;;;;;;;22.88;9.68;;;;;;;;;;5020212;28;20037;-67
2022/07/02 03:59:39;;;;;;;26.77;9.23;;;;;;;;;;5033616;28;20045;-67
2022/07/02 04:02:44;;;;;;;27.70;8.57;;;;;;;;;;5033329;28;20037;-67
2022/07/02 04:05:48;;;;;;;30.60;8.45;;;;;;;;;;5033503;28;20473;-67
2022/07/02 04:08:52;;;;;;;22.17;7.72;;;;;;;;;;5032979;28;20400;-66
2022/07/02 04:11:56;;;;;;;25.38;7.82;;;;;;;;;;5033198;28;20049;-67
2022/07/02 04:15:01;;;;;;;28.73;7.95;;;;;;;;;;5032988;28;20045;-67
2022/07/02 04:18:05;;;;;;;22.70;7.35;;;;;;;;;;5033192;28;20473;-67
2022/07/02 04:21:09;;;;;;;17.88;6.95;;;;;;;;;;5033104;28;20372;-66
2022/07/02 04:24:13;;;;;;;38.78;9.70;;;;;;;;;;5033195;28;20049;-66
2022/07/02 04:27:18;;;;;;;41.38;10.73;;;;;;;;;;5033075;28;20029;-66
2022/07/02 04:30:25;;;;;;;30.80;9.55;;;;;;;;;;5032597;28;20063;-66
2022/07/02 04:33:29;;;;;;;32.80;9.23;;;;;;;;;;5032835;28;20474;-67
2022/07/02 04:36:34;;;;;;;36.72;10.07;;;;;;;;;;5033014;28;20394;-67
2022/07/02 04:39:38;;;;;;;24.58;9.30;;;;;;;;;;5032540;28;20045;-67
2022/07/02 04:42:43;;;;;;;26.33;9.15;;;;;;;;;;5032499;28;20033;-67
2022/07/02 04:45:47;;;;;;;29.60;9.95;;;;;;;;;;5032623;28;20050;-67
2022/07/02 04:48:51;;;;;;;25.98;9.68;;;;;;;;;;5032690;28;20029;-66
2022/07/02 04:51:56;;;;;;;33.78;9.60;;;;;;;;;;5032343;28;20045;-67
2022/07/02 04:55:01;;;;;;;24.75;10.05;;;;;;;;;;5032639;28;20524;-66
2022/07/02 04:58:05;;;;;;;36.45;11.00;;;;;;;;;;5032347;28;20045;-67
2022/07/02 05:01:09;;;;;;;28.88;9.75;;;;;;;;;;5032242;28;20040;-67
2022/07/02 05:04:13;;;;;;;29.95;10.20;;;;;;;;;;5032005;28;20041;-66
2022/07/02 05:07:18;;;;;;;35.42;11.10;;;;;;;;;;5031977;28;20518;-67
2022/07/02 05:10:23;;;;;;;29.35;9.98;;;;;;;;;;5031932;28;20045;-67
2022/07/02 05:13:27;;;;;;;53.88;10.70;;;;;;;;;;5032295;28;20130;-67
2022/07/02 05:16:31;;;;;;;36.17;10.38;;;;;;;;;;5019354;28;20054;-67
2022/07/02 05:19:36;;;;;;;35.28;10.93;;;;;;;;;;5031950;28;20052;-67
2022/07/02 05:22:40;;;;;;;32.60;9.38;;;;;;;;;;5032119;28;20060;-67
2022/07/02 05:25:44;;;;;;;34.20;9.63;;;;;;;;;;5031785;28;20042;-66
2022/07/02 05:28:48;;;;;;;47.17;11.55;;;;;;;;;;5031419;28;20046;-67
2022/07/02 05:31:53;;;;;;;30.60;9.90;;;;;;;;;;5031729;28;20048;-66
2022/07/02 05:34:57;;;;;;;31.55;8.55;;;;;;;;;;5031625;28;20038;-66
2022/07/02 05:38:01;;;;;;;47.90;9.52;;;;;;;;;;5031529;28;20041;-67
2022/07/02 05:41:08;;;;;;;35.53;8.30;;;;;;;;;;5031494;28;20105;-66
2022/07/02 05:44:13;;;;;;;26.92;8.02;;;;;;;;;;5031660;28;20045;-67
2022/07/02 05:47:18;;;;;;;26.58;6.75;;;;;;;;;;5031150;28;20042;-67
2022/07/02 05:50:22;;;;;;;38.28;8.02;;;;;;;;;;5031428;28;20038;-68
2022/07/02 05:53:26;;;;;;;25.48;7.20;;;;;;;;;;5031582;28;20044;-68
2022/07/02 05:56:31;;;;;;;20.67;6.53;;;;;;;;;;5031236;28;20033;-68
2022/07/02 05:59:36;;;;;;;21.40;6.40;;;;;;;;;;5031309;28;20052;-69
2022/07/02 06:02:40;;;;;;;30.85;6.72;;;;;;;;;;5031481;28;20506;-69
2022/07/02 06:09:08;;;;;;;25.73;7.32;;;;;;;;;;5019338;28;20042;-69
2022/07/02 06:12:12;;;;;;;34.65;7.53;;;;;;;;;;5031074;28;20504;-70
2022/07/02 06:15:17;;;;;;;25.35;6.40;;;;;;;;;;5030920;28;20046;-69
2022/07/02 06:18:21;;;;;;;20.27;6.15;;;;;;;;;;5031078;28;20354;-70
2022/07/02 06:21:26;;;;;;;25.25;6.35;;;;;;;;;;5030818;28;20048;-69
2022/07/02 06:24:30;;;;;;;32.15;6.78;;;;;;;;;;5030561;28;20049;-73
2022/07/02 06:27:34;;;;;;;31.25;6.32;;;;;;;;;;5030816;28;20037;-69
2022/07/02 06:30:39;;;;;;;31.30;5.43;;;;;;;;;;5030619;28;20041;-75
2022/07/02 06:33:43;;;;;;;21.83;5.05;;;;;;;;;;5030663;28;20049;-72
2022/07/02 06:36:47;;;;;;;20.52;5.18;;;;;;;;;;5030456;28;20046;-75
2022/07/02 06:39:52;;;;;;;25.10;4.75;;;;;;;;;;5030863;28;20038;-76
2022/07/02 06:42:56;;;;;;;19.98;5.07;;;;;;;;;;5031187;28;20041;-75
2022/07/02 06:46:00;;;;;;;14.70;4.55;;;;;;;;;;5018771;28;20033;-75
2022/07/02 06:49:05;;;;;;;19.88;5.93;;;;;;;;;;5030789;28;20048;-76
2022/07/02 06:52:09;;;;;;;21.38;5.72;;;;;;;;;;5030925;28;20057;-76
2022/07/02 06:55:13;;;;;;;25.17;5.38;;;;;;;;;;5031075;28;20033;-75
2022/07/02 06:58:17;;;;;;;17.88;6.13;;;;;;;;;;5031033;28;20041;-76
2022/07/02 07:01:22;;;;;;;23.73;6.20;;;;;;;;;;5031124;28;20041;-75
2022/07/02 07:04:29;;;;;;;25.40;5.40;;;;;;;;;;5030920;28;20040;-73
2022/07/02 07:07:34;;;;;;;20.00;4.68;;;;;;;;;;5030554;28;20042;-75
2022/07/02 07:10:40;;;;;;;12.52;4.65;;;;;;;;;;5030923;28;20584;-75
2022/07/02 07:13:44;;;;;;;19.20;4.93;;;;;;;;;;5030626;28;20409;-76
2022/07/02 07:16:48;;;;;;;20.95;5.20;;;;;;;;;;5030970;28;20045;-76
2022/07/02 07:19:53;;;;;;;25.80;5.35;;;;;;;;;;5030907;28;20042;-76
2022/07/02 07:22:57;;;;;;;17.85;4.75;;;;;;;;;;5030633;28;20064;-76
2022/07/02 07:26:02;;;;;;;15.48;5.03;;;;;;;;;;5030784;28;20030;-74
2022/07/02 07:29:06;;;;;;;24.77;5.15;;;;;;;;;;5030095;28;20048;-73
2022/07/02 07:32:11;;;;;;;23.77;4.78;;;;;;;;;;5033482;28;20050;-74
2022/07/02 07:35:15;;;;;;;22.60;5.10;;;;;;;;;;5034013;28;20038;-76
2022/07/02 07:38:20;;;;;;;16.73;5.00;;;;;;;;;;5033556;28;20053;-76
2022/07/02 07:41:24;;;;;;;29.63;5.43;;;;;;;;;;5022039;28;20048;-76
2022/07/02 07:44:29;;;;;;;26.58;5.50;;;;;;;;;;5021929;28;20060;-72
2022/07/02 07:47:33;;;;;;;24.48;5.07;;;;;;;;;;5033972;28;20033;-77
2022/07/02 07:50:38;;;;;;;15.35;4.78;;;;;;;;;;5021854;28;20054;-75
2022/07/02 07:53:43;;;;;;;17.85;8.50;;;;;;;;;;5033890;28;20053;-75
2022/07/02 07:56:47;;;;;;;19.02;4.65;;;;;;;;;;5033512;28;20044;-77
2022/07/02 07:59:51;;;;;;;25.23;5.43;;;;;;;;;;5033572;28;20041;-75
2022/07/02 08:02:56;;;;;;;13.73;4.20;;;;;;;;;;5033875;28;20033;-78
2022/07/02 08:06:00;;;;;;;29.10;5.43;;;;;;;;;;5033460;28;20041;-74
2022/07/02 08:09:05;;;;;;;25.25;5.20;;;;;;;;;;5021142;28;20057;-77
2022/07/02 08:12:09;;;;;;;28.35;4.97;;;;;;;;;;5033379;28;20251;-76
2022/07/02 08:15:13;;;;;;;32.60;5.68;;;;;;;;;;5032802;28;20052;-74
2022/07/02 08:18:18;;;;;;;39.42;6.13;;;;;;;;;;5033170;28;20529;-75
2022/07/02 08:21:22;;;;;;;26.83;4.85;;;;;;;;;;5033207;28;20037;-73
2022/07/02 08:24:27;;;;;;;22.05;5.32;;;;;;;;;;5033310;28;20041;-73
2022/07/02 08:27:31;;;;;;;20.05;5.35;;;;;;;;;;5032881;28;20508;-74
2022/07/02 08:30:35;;;;;;;33.78;4.82;;;;;;;;;;5033308;28;20589;-76
2022/07/02 08:33:42;;;;;;;18.10;4.53;;;;;;;;;;5032740;28;20046;-73
2022/07/02 08:36:46;;;;;;;22.80;4.50;;;;;;;;;;5033113;28;20422;-72
2022/07/02 08:39:50;;;;;;;13.82;4.13;;;;;;;;;;5032782;28;20033;-73
2022/07/02 08:42:55;;;;;;;16.48;3.60;;;;;;;;;;5020188;28;20509;-71
2022/07/02 08:46:02;;;;;;;17.75;4.22;;;;;;;;;;5020574;28;20048;-77
2022/07/02 08:49:08;;;;;;;12.07;2.85;;;;;;;;;;5032598;28;20041;-71
2022/07/02 08:52:14;;;;;;;14.50;3.30;;;;;;;;;;5032290;28;20060;-70
2022/07/02 08:55:19;;;;;;;16.23;3.60;;;;;;;;;;5032961;28;20062;-75
2022/07/02 08:58:23;;;;;;;15.40;4.22;;;;;;;;;;5032591;28;20406;-70
2022/07/02 09:01:28;;;;;;;10.13;3.47;;;;;;;;;;5032394;28;20033;-75
2022/07/02 09:04:33;;;;;;;25.85;4.43;;;;;;;;;;5032461;28;20503;-72
2022/07/02 09:07:39;;;;;;;15.00;4.20;;;;;;;;;;5032370;28;20059;-72
2022/07/02 09:10:44;;;;;;;16.30;4.40;;;;;;;;;;5032219;28;20038;-75
2022/07/02 09:13:49;;;;;;;9.02;3.20;;;;;;;;;;5019993;28;20062;-73
2022/07/02 09:16:53;;;;;;;16.02;3.30;;;;;;;;;;5032073;28;20046;-72
2022/07/02 09:19:57;;;;;;;14.82;3.10;;;;;;;;;;5031870;28;20033;-72
2022/07/02 09:23:01;;;;;;;11.40;3.28;;;;;;;;;;5020069;28;20045;-74
2022/07/02 09:26:16;;;;;;;16.17;2.80;;;;;;;;;;5020014;28;20393;-76
2022/07/02 09:29:20;;;;;;;10.57;2.65;;;;;;;;;;5020102;28;20041;-75
2022/07/02 09:32:25;;;;;;;11.30;2.22;;;;;;;;;;5031816;28;20386;-72
2022/07/02 09:35:29;;;;;;;9.52;2.88;;;;;;;;;;5031565;28;20378;-74
2022/07/02 09:38:43;;;;;;;10.00;2.67;;;;;;;;;;5031824;28;20041;-74
2022/07/02 09:41:47;;;;;;;11.98;2.67;;;;;;;;;;5031522;28;20046;-73
2022/07/02 09:44:52;;;;;;;8.27;2.97;;;;;;;;;;5031588;28;20048;-74
2022/07/02 09:47:56;;;;;;;11.93;2.80;;;;;;;;;;5031531;28;20041;-74
2022/07/02 09:51:04;;;;;;;19.35;2.80;;;;;;;;;;5031700;28;20477;-74
2022/07/02 09:54:09;;;;;;;15.48;2.63;;;;;;;;;;5030732;28;20046;-75
2022/07/02 09:57:13;;;;;;;7.95;2.58;;;;;;;;;;5031202;28;20037;-74
2022/07/02 10:00:18;;;;;;;11.68;2.80;;;;;;;;;;5031713;28;20041;-72
2022/07/02 10:03:22;;;;;;;18.65;3.13;;;;;;;;;;5031584;28;20189;-74
2022/07/02 10:06:26;;;;;;;11.82;2.80;;;;;;;;;;5030240;28;20044;-74
2022/07/02 10:09:30;;;;;;;14.15;2.72;;;;;;;;;;5031189;28;20046;-74
2022/07/02 10:12:35;;;;;;;8.57;2.80;;;;;;;;;;5031297;28;20053;-74
2022/07/02 10:15:49;;;;;;;12.10;2.83;;;;;;;;;;5031181;28;20493;-74
2022/07/02 10:18:53;;;;;;;27.40;3.78;;;;;;;;;;5031209;28;20048;-73
2022/07/02 10:21:59;;;;;;;10.73;2.55;;;;;;;;;;5031553;28;20041;-74
2022/07/02 10:25:04;;;;;;;12.60;2.85;;;;;;;;;;5031476;28;20049;-74
2022/07/02 10:28:08;;;;;;;13.43;3.08;;;;;;;;;;5031124;28;20034;-73
2022/07/02 10:31:18;;;;;;;11.98;3.38;;;;;;;;;;5030912;28;20041;-74
2022/07/02 10:34:28;;;;;;;8.10;2.67;;;;;;;;;;5030598;28;20045;-74
2022/07/02 10:37:33;;;;;;;9.88;2.65;;;;;;;;;;5030607;28;20057;-73
2022/07/02 10:40:47;;;;;;;13.40;2.70;;;;;;;;;;5030955;28;20033;-74
2022/07/02 10:43:54;;;;;;;11.43;2.40;;;;;;;;;;5031128;28;20046;-73
2022/07/02 10:47:00;;;;;;;19.20;3.53;;;;;;;;;;5030454;28;20478;-72
2022/07/02 10:50:04;;;;;;;13.75;3.20;;;;;;;;;;5030748;28;20045;-72
2022/07/02 10:53:20;;;;;;;7.50;2.78;;;;;;;;;;5030864;28;20061;-73
2022/07/02 10:56:24;;;;;;;11.00;3.00;;;;;;;;;;5030889;28;20041;-73
2022/07/02 10:59:36;;;;;;;8.82;2.72;;;;;;;;;;5030669;28;20041;-72
2022/07/02 11:02:40;;;;;;;10.15;2.90;;;;;;;;;;5030895;28;20037;-73
2022/07/02 11:05:56;;;;;;;9.02;2.72;;;;;;;;;;5031809;28;20052;-73
2022/07/02 11:09:02;;;;;;;23.05;3.45;;;;;;;;;;5034734;28;20049;-72
2022/07/02 11:12:07;;;;;;;19.95;4.00;;;;;;;;;;5034363;28;20885;-73
2022/07/02 11:15:18;;;;;;;7.18;3.03;;;;;;;;;;5032392;28;20044;-73
2022/07/02 11:18:23;;;;;;;7.28;3.40;;;;;;;;;;5032145;28;20369;-73
2022/07/02 11:21:29;;;;;;;12.45;3.65;;;;;;;;;;5032016;28;20034;-73
2022/07/02 11:24:33;;;;;;;15.55;4.05;;;;;;;;;;5019357;28;20396;-73
2022/07/02 11:27:37;;;;;;;12.60;5.07;;;;;;;;;;5033256;28;20493;-73
2022/07/02 11:30:42;;;;;;;10.70;3.00;;;;;;;;;;5034327;28;20041;-72
2022/07/02 11:33:48;;;;;;;10.02;3.55;;;;;;;;;;5034532;28;20045;-73
2022/07/02 11:36:52;;;;;;;14.65;3.97;;;;;;;;;;5034169;28;20034;-73
2022/07/02 11:39:57;;;;;;;12.30;3.50;;;;;;;;;;5034257;28;20053;-74
2022/07/02 11:43:01;;;;;;;13.27;3.28;;;;;;;;;;5033861;28;20040;-73
2022/07/02 11:46:05;;;;;;;11.07;3.60;;;;;;;;;;5034152;28;20042;-73
2022/07/02 11:49:17;;;;;;;11.35;3.42;;;;;;;;;;5033566;28;20037;-74
2022/07/02 11:52:22;;;;;;;8.32;2.83;;;;;;;;;;5033874;28;20057;-73
2022/07/02 11:55:29;;;;;;;16.30;3.35;;;;;;;;;;5034080;28;20037;-73
2022/07/02 11:58:38;;;;;;;11.25;3.42;;;;;;;;;;5033500;28;20049;-73
2022/07/02 12:01:43;;;;;;;6.70;2.90;;;;;;;;;;5033933;28;20041;-72
2022/07/02 12:04:50;;;;;;;8.70;3.22;;;;;;;;;;5021689;28;20033;-73
2022/07/02 12:07:54;;;;;;;16.63;3.70;;;;;;;;;;5033715;28;20045;-73
2022/07/02 12:10:59;;;;;;;8.40;3.20;;;;;;;;;;5033709;28;20052;-73
2022/07/02 12:14:07;;;;;;;9.60;3.90;;;;;;;;;;5033457;28;20045;-73
2022/07/02 12:17:12;;;;;;;9.93;3.33;;;;;;;;;;5032360;28;20041;-73
2022/07/02 12:20:18;;;;;;;9.45;3.70;;;;;;;;;;5031753;28;20049;-73
2022/07/02 12:23:21;;;;;;;9.25;3.22;;;;;;;;;;5032183;28;20041;-73
2022/07/02 12:26:27;;;;;;;9.13;2.90;;;;;;;;;;5032866;28;20042;-73
2022/07/02 12:32:56;;;;;;;11.85;3.28;;;;;;;;;;5033119;28;20053;-73
2022/07/02 12:36:01;;;;;;;8.90;3.25;;;;;;;;;;5033244;28;20037;-73
2022/07/02 12:39:06;;;;;;;11.07;3.55;;;;;;;;;;5032696;28;20041;-73
2022/07/02 12:42:13;;;;;;;8.05;3.00;;;;;;;;;;5033229;28;20124;-73
2022/07/02 12:45:26;;;;;;;7.80;3.05;;;;;;;;;;5032754;28;20496;-73
2022/07/02 12:48:30;;;;;;;8.52;3.17;;;;;;;;;;5032326;28;20037;-72
2022/07/02 12:51:34;;;;;;;9.88;3.63;;;;;;;;;;5032593;28;20045;-73
2022/07/02 12:54:42;;;;;;;7.88;3.05;;;;;;;;;;5032617;28;20030;-71
2022/07/02 12:57:46;;;;;;;9.23;3.15;;;;;;;;;;5032559;28;20038;-70
2022/07/02 13:00:51;;;;;;;14.55;3.40;;;;;;;;;;5032694;28;20041;-74
2022/07/02 13:03:58;;;;;;;13.73;3.90;;;;;;;;;;5032622;28;20508;-71
2022/07/02 13:07:02;;;;;;;13.38;3.60;;;;;;;;;;5032518;28;20414;-73
2022/07/02 13:10:07;;;;;;;10.27;2.88;;;;;;;;;;5032557;28;20038;-72
2022/07/02 13:13:11;;;;;;;7.90;2.95;;;;;;;;;;5032099;28;20045;-71
2022/07/02 13:16:15;;;;;;;14.82;3.40;;;;;;;;;;5032137;28;20198;-74
2022/07/02 13:19:19;;;;;;;7.90;3.08;;;;;;;;;;5032028;28;20045;-72
2022/07/02 13:22:26;;;;;;;11.52;3.10;;;;;;;;;;5019036;28;20154;-72
2022/07/02 13:25:30;;;;;;;5.97;2.83;;;;;;;;;;5031738;28;20049;-72
2022/07/02 13:28:35;;;;;;;7.60;2.88;;;;;;;;;;5031772;28;20037;-72
2022/07/02 13:31:39;;;;;;;11.95;2.75;;;;;;;;;;5031944;28;20488;-72
2022/07/02 13:34:43;;;;;;;9.32;3.10;;;;;;;;;;5031722;28;20381;-72
2022/07/02 13:37:47;;;;;;;7.22;2.70;;;;;;;;;;5032175;28;20042;-73
2022/07/02 13:40:52;;;;;;;7.85;3.10;;;;;;;;;;5031828;28;20088;-72
2022/07/02 13:43:56;;;;;;;6.43;2.60;;;;;;;;;;5031899;28;20041;-72
2022/07/02 13:47:01;;;;;;;7.45;2.65;;;;;;;;;;5031844;28;20049;-72
2022/07/02 13:50:05;;;;;;;12.68;2.78;;;;;;;;;;5030814;28;20041;-72
2022/07/02 13:53:10;;;;;;;10.65;3.38;;;;;;;;;;5031479;28;20049;-71
2022/07/02 13:56:14;;;;;;;10.40;3.40;;;;;;;;;;5031632;28;20038;-72
2022/07/02 13:59:18;;;;;;;7.82;2.78;;;;;;;;;;5031560;28;20045;-72
2022/07/02 14:02:22;;;;;;;8.63;2.97;;;;;;;;;;5031455;28;20045;-72
2022/07/02 14:05:27;;;;;;;9.05;2.60;;;;;;;;;;5031329;28;20386;-72
2022/07/02 14:08:31;;;;;;;10.88;2.40;;;;;;;;;;5031412;28;20037;-72
2022/07/02 14:11:35;;;;;;;8.98;2.63;;;;;;;;;;5031284;28;20037;-72
2022/07/02 14:14:40;;;;;;;8.70;2.35;;;;;;;;;;5030999;28;20045;-72
2022/07/02 14:17:44;;;;;;;6.72;2.15;;;;;;;;;;5019427;28;20109;-71
2022/07/02 14:20:49;;;;;;;12.32;2.75;;;;;;;;;;5031594;28;20046;-72
2022/07/02 14:23:53;;;;;;;5.00;2.30;;;;;;;;;;5031042;28;20034;-72
2022/07/02 14:26:57;;;;;;;8.32;2.45;;;;;;;;;;5031029;28;20041;-72
2022/07/02 14:30:02;;;;;;;9.75;2.25;;;;;;;;;;5031297;28;20037;-71
2022/07/02 14:33:07;;;;;;;8.13;2.80;;;;;;;;;;5031278;28;20045;-71
2022/07/02 14:36:12;;;;;;;8.38;2.50;;;;;;;;;;5031297;28;20033;-72
2022/07/02 14:39:16;;;;;;;7.57;2.50;;;;;;;;;;5031279;28;20042;-72
2022/07/02 14:42:21;;;;;;;8.50;2.63;;;;;;;;;;5034903;28;20053;-72
2022/07/02 14:45:25;;;;;;;9.68;2.25;;;;;;;;;;5033490;28;20038;-72
2022/07/02 14:48:29;;;;;;;7.43;2.22;;;;;;;;;;5035126;28;20041;-72
2022/07/02 14:51:33;;;;;;;13.43;2.97;;;;;;;;;;5022672;28;20042;-72
2022/07/02 14:54:37;;;;;;;11.25;3.25;;;;;;;;;;5034836;28;20042;-72
2022/07/02 14:57:42;;;;;;;5.80;1.90;;;;;;;;;;5034652;28;20366;-72
2022/07/02 15:00:46;;;;;;;13.45;3.60;;;;;;;;;;5034903;28;20041;-72
2022/07/02 15:03:51;;;;;;;7.15;2.47;;;;;;;;;;5034609;28;20029;-72
2022/07/02 15:06:55;;;;;;;5.60;2.13;;;;;;;;;;5034905;28;20037;-73
2022/07/02 15:10:00;;;;;;;6.90;2.50;;;;;;;;;;5034744;28;20041;-72
2022/07/02 15:13:04;;;;;;;13.40;2.17;;;;;;;;;;5034637;28;20045;-73
2022/07/02 15:16:08;;;;;;;6.07;2.28;;;;;;;;;;5034368;28;20046;-71
2022/07/02 15:19:13;;;;;;;7.97;2.58;;;;;;;;;;5034656;28;20053;-72
2022/07/02 15:22:20;;;;;;;6.82;1.98;;;;;;;;;;5034183;28;20041;-72
2022/07/02 15:25:25;;;;;;;10.52;2.03;;;;;;;;;;5034549;28;20041;-73
2022/07/02 15:28:30;;;;;;;7.82;1.70;;;;;;;;;;5033997;28;20525;-71
2022/07/02 15:31:34;;;;;;;7.57;2.15;;;;;;;;;;5034039;28;20045;-71
2022/07/02 15:34:46;;;;;;;6.47;2.45;;;;;;;;;;5034258;28;20053;-72
2022/07/02 15:37:51;;;;;;;6.22;2.17;;;;;;;;;;5033920;28;20045;-72
2022/07/02 15:40:55;;;;;;;5.47;2.05;;;;;;;;;;5032373;28;20045;-72
2022/07/02 15:44:00;;;;;;;7.25;2.60;;;;;;;;;;5032181;28;20042;-72
2022/07/02 15:47:05;;;;;;;11.30;2.08;;;;;;;;;;5032163;28;20037;-72
2022/07/02 15:50:10;;;;;;;10.13;2.22;;;;;;;;;;5031811;28;20037;-72
2022/07/02 15:53:16;;;;;;;9.48;2.50;;;;;;;;;;5031491;28;20076;-71
2022/07/02 15:56:21;;;;;;;13.02;3.17;;;;;;;;;;5033023;28;20029;-72
2022/07/02 15:59:26;;;;;;;11.35;2.78;;;;;;;;;;5033767;28;20038;-72
2022/07/02 16:02:31;;;;;;;7.03;2.47;;;;;;;;;;5033569;28;20037;-72
2022/07/02 16:05:37;;;;;;;9.35;2.20;;;;;;;;;;5033545;28;20033;-71
2022/07/02 16:08:41;;;;;;;6.57;2.85;;;;;;;;;;5033302;28;20034;-72
2022/07/02 16:11:46;;;;;;;7.97;2.67;;;;;;;;;;5033404;28;20045;-72
2022/07/02 16:14:51;;;;;;;10.35;3.15;;;;;;;;;;5020932;28;20045;-72
2022/07/02 16:17:55;;;;;;;11.63;3.80;;;;;;;;;;5033282;28;20041;-72
2022/07/02 16:20:59;;;;;;;10.68;4.30;;;;;;;;;;5033413;28;20068;-72
2022/07/02 16:24:04;;;;;;;8.50;2.83;;;;;;;;;;5032995;28;20033;-72
2022/07/02 16:27:09;;;;;;;14.07;3.28;;;;;;;;;;5033152;28;20041;-69
2022/07/02 16:30:13;;;;;;;14.18;2.72;;;;;;;;;;5032493;28;20048;-67
2022/07/02 16:33:21;;;;;;;10.80;2.55;;;;;;;;;;5033150;28;20045;-69
2022/07/02 16:36:26;;;;;;;15.18;2.63;;;;;;;;;;5031603;28;20037;-69
2022/07/02 16:39:36;;;;;;;10.63;2.83;;;;;;;;;;5032151;28;20053;-68
2022/07/02 16:42:42;;;;;;;10.37;2.30;;;;;;;;;;5020350;28;20583;-68
2022/07/02 16:45:48;;;;;;;14.20;2.95;;;;;;;;;;5032612;28;20297;-70
2022/07/02 16:48:55;;;;;;;12.70;2.58;;;;;;;;;;5032174;28;20025;-69
2022/07/02 16:52:00;;;;;;;14.30;2.50;;;;;;;;;;5032235;28;20136;-69
2022/07/02 16:55:06;;;;;;;13.13;2.60;;;;;;;;;;5020070;28;20037;-69
2022/07/02 16:58:10;;;;;;;14.07;2.40;;;;;;;;;;5032129;28;20048;-69
2022/07/02 17:01:16;;;;;;;10.50;2.20;;;;;;;;;;5019746;28;20030;-69
2022/07/02 17:04:22;;;;;;;20.10;2.78;;;;;;;;;;5031678;28;20049;-69
2022/07/02 17:07:26;;;;;;;13.02;3.28;;;;;;;;;;5032038;28;20378;-70
2022/07/02 17:13:53;;;;;;;18.02;5.65;;;;;;;;;;5032032;28;20045;-70
2022/07/02 17:16:58;;;;;;;17.17;4.32;;;;;;;;;;5031977;28;20386;-70
2022/07/02 17:20:02;;;;;;;15.35;5.00;;;;;;;;;;5032172;28;20045;-70
2022/07/02 17:23:06;;;;;;;14.85;3.67;;;;;;;;;;5032003;28;20044;-70
2022/07/02 17:26:10;;;;;;;13.10;3.67;;;;;;;;;;5031703;28;20041;-70
2022/07/02 17:29:15;;;;;;;9.75;2.97;;;;;;;;;;5031747;28;20029;-71
2022/07/02 17:32:19;;;;;;;9.68;3.05;;;;;;;;;;5031585;28;20045;-71
2022/07/02 17:35:25;;;;;;;17.13;3.15;;;;;;;;;;5031833;28;20042;-69
2022/07/02 17:38:30;;;;;;;17.05;3.08;;;;;;;;;;5031570;28;20108;-68
2022/07/02 17:41:34;;;;;;;13.65;3.72;;;;;;;;;;5031392;28;20132;-69
2022/07/02 17:44:38;;;;;;;19.65;3.35;;;;;;;;;;5019379;28;20042;-69
2022/07/02 17:47:43;;;;;;;8.52;3.15;;;;;;;;;;5030996;28;20516;-69
2022/07/02 17:50:49;;;;;;;20.08;3.90;;;;;;;;;;5031433;28;20037;-68
2022/07/02 17:53:54;;;;;;;15.90;3.50;;;;;;;;;;5031121;28;20049;-69
2022/07/02 17:56:58;;;;;;;15.25;3.97;;;;;;;;;;5030865;28;20040;-69
2022/07/02 18:00:04;;;;;;;18.02;3.85;;;;;;;;;;5031088;28;20397;-68
2022/07/02 18:03:13;;;;;;;10.52;3.25;;;;;;;;;;5031287;28;20044;-68
2022/07/02 18:06:17;;;;;;;10.88;3.20;;;;;;;;;;5031417;28;20393;-68
2022/07/02 18:09:21;;;;;;;11.07;3.28;;;;;;;;;;5031258;28;20033;-69
2022/07/02 18:12:26;;;;;;;20.05;3.30;;;;;;;;;;5030892;28;20034;-69
2022/07/02 18:15:30;;;;;;;16.13;3.65;;;;;;;;;;5029810;28;20064;-68
2022/07/02 18:18:35;;;;;;;17.85;4.28;;;;;;;;;;5030738;28;20595;-69
2022/07/02 18:21:39;;;;;;;13.30;4.00;;;;;;;;;;5030777;28;20057;-69
2022/07/02 18:24:43;;;;;;;12.23;3.60;;;;;;;;;;5030978;28;20389;-68
2022/07/02 18:27:48;;;;;;;15.68;4.22;;;;;;;;;;5030773;28;20037;-68
2022/07/02 18:30:53;;;;;;;20.73;6.15;;;;;;;;;;5030511;28;20497;-70